sensor_id;sensor_type;location;lat;lon;timestamp;temperature;humidity
9564;DHT22;4820;50.870;4.702;2023-02-27T00:01:29;2.00;99.90
9564;DHT22;4820;50.870;4.702;2023-02-27T00:03:56;2.00;99.90
9564;DHT22;4820;50.870;4.702;2023-02-27T00:06:22;2.00;99.90
9564;DHT22;4820;50.870;4.702;2023-02-27T00:08:47;2.00;99.90
9564;DHT22;4820;50.870;4.702;2023-02-27T00:11:13;1.90;99.90
9564;DHT22;4820;50.870;4.702;2023-02-27T00:13:39;1.90;99.90
9564;DHT22;4820;50.870;4.702;2023-02-27T00:16:06;1.90;99.90
9564;DHT22;4820;50.870;4.702;2023-02-27T00:18:32;1.90;99.90
9564;DHT22;4820;50.870;4.702;2023-02-27T00:20:58;1.90;99.90
9564;DHT22;4820;50.870;4.702;2023-02-27T00:23:23;1.90;99.90
9564;DHT22;4820;50.870;4.702;2023-02-27T00:25:49;1.90;99.90
9564;DHT22;4820;50.870;4.702;2023-02-27T00:28:16;1.90;99.90
9564;DHT22;4820;50.870;4.702;2023-02-27T00:30:42;1.90;99.90
9564;DHT22;4820;50.870;4.702;2023-02-27T00:33:08;1.80;99.90
9564;DHT22;4820;50.870;4.702;2023-02-27T00:35:34;1.80;99.90
9564;DHT22;4820;50.870;4.702;2023-02-27T00:37:59;1.80;99.90
9564;DHT22;4820;50.870;4.702;2023-02-27T00:40:25;1.80;99.90
9564;DHT22;4820;50.870;4.702;2023-02-27T00:42:51;1.70;99.90
9564;DHT22;4820;50.870;4.702;2023-02-27T00:45:17;1.80;99.90
9564;DHT22;4820;50.870;4.702;2023-02-27T00:47:45;1.70;99.90
9564;DHT22;4820;50.870;4.702;2023-02-27T00:50:11;1.70;99.90
9564;DHT22;4820;50.870;4.702;2023-02-27T00:52:38;1.70;99.90
9564;DHT22;4820;50.870;4.702;2023-02-27T00:55:04;1.70;99.90
9564;DHT22;4820;50.870;4.702;2023-02-27T00:57:30;1.70;99.90
9564;DHT22;4820;50.870;4.702;2023-02-27T00:59:56;1.70;99.90
9564;DHT22;4820;50.870;4.702;2023-02-27T01:02:22;1.70;99.90
9564;DHT22;4820;50.870;4.702;2023-02-27T01:04:48;1.70;99.90
9564;DHT22;4820;50.870;4.702;2023-02-27T01:07:13;1.70;99.90
9564;DHT22;4820;50.870;4.702;2023-02-27T01:09:39;1.80;99.90
9564;DHT22;4820;50.870;4.702;2023-02-27T01:12:05;1.60;99.90
9564;DHT22;4820;50.870;4.702;2023-02-27T01:14:30;1.60;99.90
9564;DHT22;4820;50.870;4.702;2023-02-27T01:16:56;1.50;99.90
9564;DHT22;4820;50.870;4.702;2023-02-27T01:19:23;1.50;99.90
9564;DHT22;4820;50.870;4.702;2023-02-27T01:21:49;1.50;99.90
9564;DHT22;4820;50.870;4.702;2023-02-27T01:24:15;1.50;99.90
9564;DHT22;4820;50.870;4.702;2023-02-27T01:26:41;1.50;99.90
9564;DHT22;4820;50.870;4.702;2023-02-27T01:29:06;1.50;99.90
9564;DHT22;4820;50.870;4.702;2023-02-27T01:31:33;1.50;99.90
9564;DHT22;4820;50.870;4.702;2023-02-27T01:33:58;1.50;99.90
9564;DHT22;4820;50.870;4.702;2023-02-27T01:36:24;1.40;99.90
9564;DHT22;4820;50.870;4.702;2023-02-27T01:38:50;1.50;99.90
9564;DHT22;4820;50.870;4.702;2023-02-27T01:41:16;1.50;99.90
9564;DHT22;4820;50.870;4.702;2023-02-27T01:46:26;1.50;99.90
9564;DHT22;4820;50.870;4.702;2023-02-27T01:48:57;1.40;99.90
9564;DHT22;4820;50.870;4.702;2023-02-27T01:51:26;1.40;99.90
9564;DHT22;4820;50.870;4.702;2023-02-27T01:53:55;1.40;99.90
9564;DHT22;4820;50.870;4.702;2023-02-27T01:56:24;1.40;99.90
9564;DHT22;4820;50.870;4.702;2023-02-27T01:58:52;1.40;99.90
9564;DHT22;4820;50.870;4.702;2023-02-27T02:01:19;1.30;99.90
9564;DHT22;4820;50.870;4.702;2023-02-27T02:06:47;1.30;99.90
9564;DHT22;4820;50.870;4.702;2023-02-27T02:09:16;1.20;99.90
9564;DHT22;4820;50.870;4.702;2023-02-27T02:11:43;1.30;99.90
9564;DHT22;4820;50.870;4.702;2023-02-27T02:14:09;1.30;99.90
9564;DHT22;4820;50.870;4.702;2023-02-27T02:42:37;1.20;99.90
9564;DHT22;4820;50.870;4.702;2023-02-27T02:45:21;1.20;99.90
9564;DHT22;4820;50.870;4.702;2023-02-27T02:48:05;1.20;99.90
9564;DHT22;4820;50.870;4.702;2023-02-27T03:00:53;1.00;99.90
9564;DHT22;4820;50.870;4.702;2023-02-27T03:03:32;1.00;99.90
9564;DHT22;4820;50.870;4.702;2023-02-27T03:06:07;1.00;99.90
9564;DHT22;4820;50.870;4.702;2023-02-27T03:08:43;1.00;99.90
9564;DHT22;4820;50.870;4.702;2023-02-27T03:11:11;1.00;99.90
9564;DHT22;4820;50.870;4.702;2023-02-27T03:13:42;1.00;99.90
9564;DHT22;4820;50.870;4.702;2023-02-27T03:22:18;1.00;99.90
9564;DHT22;4820;50.870;4.702;2023-02-27T03:24:48;1.00;99.90
9564;DHT22;4820;50.870;4.702;2023-02-27T03:27:17;1.00;99.90
9564;DHT22;4820;50.870;4.702;2023-02-27T03:32:41;0.90;99.90
9564;DHT22;4820;50.870;4.702;2023-02-27T03:35:10;0.90;99.90
9564;DHT22;4820;50.870;4.702;2023-02-27T03:43:55;0.80;99.90
9564;DHT22;4820;50.870;4.702;2023-02-27T03:46:25;0.80;99.90
9564;DHT22;4820;50.870;4.702;2023-02-27T03:48:52;0.80;99.90
9564;DHT22;4820;50.870;4.702;2023-02-27T03:51:20;0.80;99.90
9564;DHT22;4820;50.870;4.702;2023-02-27T03:56:55;0.80;99.90
9564;DHT22;4820;50.870;4.702;2023-02-27T03:59:22;0.80;99.90
9564;DHT22;4820;50.870;4.702;2023-02-27T04:01:49;0.80;99.90
9564;DHT22;4820;50.870;4.702;2023-02-27T04:04:16;0.80;99.90
9564;DHT22;4820;50.870;4.702;2023-02-27T04:06:53;0.90;99.90
9564;DHT22;4820;50.870;4.702;2023-02-27T04:22:59;0.80;99.90
9564;DHT22;4820;50.870;4.702;2023-02-27T04:25:46;0.80;99.90
9564;DHT22;4820;50.870;4.702;2023-02-27T04:28:26;0.80;99.90
9564;DHT22;4820;50.870;4.702;2023-02-27T04:31:12;0.80;99.90
9564;DHT22;4820;50.870;4.702;2023-02-27T04:33:48;0.70;99.90
9564;DHT22;4820;50.870;4.702;2023-02-27T04:36:24;0.70;99.90
9564;DHT22;4820;50.870;4.702;2023-02-27T04:39:05;0.70;99.90
9564;DHT22;4820;50.870;4.702;2023-02-27T04:42:03;0.70;99.90
9564;DHT22;4820;50.870;4.702;2023-02-27T04:44:33;0.70;99.90
9564;DHT22;4820;50.870;4.702;2023-02-27T04:47:01;0.70;99.90
9564;DHT22;4820;50.870;4.702;2023-02-27T04:49:45;0.70;99.90
9564;DHT22;4820;50.870;4.702;2023-02-27T04:52:39;0.70;99.90
9564;DHT22;4820;50.870;4.702;2023-02-27T04:55:10;0.70;99.90
9564;DHT22;4820;50.870;4.702;2023-02-27T04:57:41;0.70;99.90
9564;DHT22;4820;50.870;4.702;2023-02-27T05:00:12;0.70;99.90
9564;DHT22;4820;50.870;4.702;2023-02-27T05:02:45;0.70;99.90
9564;DHT22;4820;50.870;4.702;2023-02-27T05:05:21;0.70;99.90
9564;DHT22;4820;50.870;4.702;2023-02-27T05:08:03;0.60;99.90
9564;DHT22;4820;50.870;4.702;2023-02-27T05:13:38;0.60;99.90
9564;DHT22;4820;50.870;4.702;2023-02-27T05:16:30;0.60;99.90
9564;DHT22;4820;50.870;4.702;2023-02-27T05:18:58;0.50;99.90
9564;DHT22;4820;50.870;4.702;2023-02-27T05:21:47;0.50;99.90
9564;DHT22;4820;50.870;4.702;2023-02-27T05:27:17;0.50;99.90
9564;DHT22;4820;50.870;4.702;2023-02-27T05:29:48;0.50;99.90
9564;DHT22;4820;50.870;4.702;2023-02-27T05:32:28;0.50;99.90
9564;DHT22;4820;50.870;4.702;2023-02-27T05:35:17;0.40;99.90
9564;DHT22;4820;50.870;4.702;2023-02-27T05:40:36;0.50;99.90
9564;DHT22;4820;50.870;4.702;2023-02-27T05:43:21;0.50;99.90
9564;DHT22;4820;50.870;4.702;2023-02-27T05:45:52;0.50;99.90
9564;DHT22;4820;50.870;4.702;2023-02-27T05:48:56;0.50;99.90
9564;DHT22;4820;50.870;4.702;2023-02-27T05:51:25;0.40;99.90
9564;DHT22;4820;50.870;4.702;2023-02-27T05:54:21;0.50;99.90
9564;DHT22;4820;50.870;4.702;2023-02-27T05:56:52;0.40;99.90
9564;DHT22;4820;50.870;4.702;2023-02-27T05:59:39;0.40;99.90
9564;DHT22;4820;50.870;4.702;2023-02-27T06:02:09;0.50;99.90
9564;DHT22;4820;50.870;4.702;2023-02-27T06:04:35;0.50;99.90
9564;DHT22;4820;50.870;4.702;2023-02-27T06:07:01;0.40;99.90
9564;DHT22;4820;50.870;4.702;2023-02-27T06:09:30;0.40;99.90
9564;DHT22;4820;50.870;4.702;2023-02-27T06:11:58;0.40;99.90
9564;DHT22;4820;50.870;4.702;2023-02-27T06:14:24;0.40;99.90
9564;DHT22;4820;50.870;4.702;2023-02-27T06:16:50;0.40;99.90
9564;DHT22;4820;50.870;4.702;2023-02-27T06:19:15;0.40;99.90
9564;DHT22;4820;50.870;4.702;2023-02-27T06:21:41;0.40;99.90
9564;DHT22;4820;50.870;4.702;2023-02-27T06:24:07;0.40;99.90
9564;DHT22;4820;50.870;4.702;2023-02-27T06:26:33;0.40;99.90
9564;DHT22;4820;50.870;4.702;2023-02-27T06:28:59;0.40;99.90
9564;DHT22;4820;50.870;4.702;2023-02-27T06:31:24;0.40;99.90
9564;DHT22;4820;50.870;4.702;2023-02-27T06:33:50;0.40;99.90
9564;DHT22;4820;50.870;4.702;2023-02-27T06:36:16;0.40;99.90
9564;DHT22;4820;50.870;4.702;2023-02-27T06:38:42;0.50;99.90
9564;DHT22;4820;50.870;4.702;2023-02-27T06:41:08;0.40;99.90
9564;DHT22;4820;50.870;4.702;2023-02-27T06:43:34;0.40;99.90
9564;DHT22;4820;50.870;4.702;2023-02-27T06:46:02;0.40;99.90
9564;DHT22;4820;50.870;4.702;2023-02-27T06:48:27;0.40;99.90
9564;DHT22;4820;50.870;4.702;2023-02-27T06:50:55;0.40;99.90
9564;DHT22;4820;50.870;4.702;2023-02-27T06:53:22;0.40;99.90
9564;DHT22;4820;50.870;4.702;2023-02-27T06:55:48;0.40;99.90
9564;DHT22;4820;50.870;4.702;2023-02-27T06:58:15;0.40;99.90
9564;DHT22;4820;50.870;4.702;2023-02-27T07:00:41;0.40;99.90
9564;DHT22;4820;50.870;4.702;2023-02-27T07:03:08;0.40;99.90
9564;DHT22;4820;50.870;4.702;2023-02-27T07:05:34;0.40;99.90
9564;DHT22;4820;50.870;4.702;2023-02-27T07:08:00;0.30;99.90
9564;DHT22;4820;50.870;4.702;2023-02-27T07:10:27;0.40;99.90
9564;DHT22;4820;50.870;4.702;2023-02-27T07:12:53;0.40;99.90
9564;DHT22;4820;50.870;4.702;2023-02-27T07:15:19;0.40;99.90
9564;DHT22;4820;50.870;4.702;2023-02-27T07:17:45;0.40;99.90
9564;DHT22;4820;50.870;4.702;2023-02-27T07:20:11;0.40;99.90
9564;DHT22;4820;50.870;4.702;2023-02-27T07:22:38;0.50;99.90
9564;DHT22;4820;50.870;4.702;2023-02-27T07:25:04;0.50;99.90
9564;DHT22;4820;50.870;4.702;2023-02-27T07:27:30;0.50;99.90
9564;DHT22;4820;50.870;4.702;2023-02-27T07:29:56;0.50;99.90
9564;DHT22;4820;50.870;4.702;2023-02-27T07:32:21;0.60;99.90
9564;DHT22;4820;50.870;4.702;2023-02-27T07:34:47;0.60;99.90
9564;DHT22;4820;50.870;4.702;2023-02-27T07:37:13;0.60;99.90
9564;DHT22;4820;50.870;4.702;2023-02-27T07:39:38;0.60;99.90
9564;DHT22;4820;50.870;4.702;2023-02-27T07:42:04;0.60;99.90
9564;DHT22;4820;50.870;4.702;2023-02-27T07:44:30;0.60;99.90
9564;DHT22;4820;50.870;4.702;2023-02-27T07:46:56;0.70;99.90
9564;DHT22;4820;50.870;4.702;2023-02-27T07:49:21;0.70;99.90
9564;DHT22;4820;50.870;4.702;2023-02-27T07:51:47;0.80;99.90
9564;DHT22;4820;50.870;4.702;2023-02-27T07:54:13;0.80;99.90
9564;DHT22;4820;50.870;4.702;2023-02-27T07:56:39;0.80;99.90
9564;DHT22;4820;50.870;4.702;2023-02-27T07:59:05;0.80;99.90
9564;DHT22;4820;50.870;4.702;2023-02-27T08:01:30;0.90;99.90
9564;DHT22;4820;50.870;4.702;2023-02-27T08:03:56;0.90;99.90
9564;DHT22;4820;50.870;4.702;2023-02-27T08:06:22;0.90;99.90
9564;DHT22;4820;50.870;4.702;2023-02-27T08:08:48;1.00;99.90
9564;DHT22;4820;50.870;4.702;2023-02-27T08:11:14;1.00;99.90
9564;DHT22;4820;50.870;4.702;2023-02-27T08:13:40;1.10;99.90
9564;DHT22;4820;50.870;4.702;2023-02-27T08:16:06;1.10;99.90
9564;DHT22;4820;50.870;4.702;2023-02-27T08:18:32;1.10;99.90
9564;DHT22;4820;50.870;4.702;2023-02-27T08:20:58;1.20;99.90
9564;DHT22;4820;50.870;4.702;2023-02-27T08:23:23;1.30;99.90
9564;DHT22;4820;50.870;4.702;2023-02-27T08:25:49;1.30;99.90
9564;DHT22;4820;50.870;4.702;2023-02-27T08:28:15;1.40;99.90
9564;DHT22;4820;50.870;4.702;2023-02-27T08:30:43;1.40;99.90
9564;DHT22;4820;50.870;4.702;2023-02-27T08:33:08;1.50;99.90
9564;DHT22;4820;50.870;4.702;2023-02-27T08:35:34;1.50;99.90
9564;DHT22;4820;50.870;4.702;2023-02-27T08:38:00;1.60;99.90
9564;DHT22;4820;50.870;4.702;2023-02-27T08:40:25;1.60;99.90
9564;DHT22;4820;50.870;4.702;2023-02-27T08:42:51;1.70;99.90
9564;DHT22;4820;50.870;4.702;2023-02-27T08:45:17;1.80;99.90
9564;DHT22;4820;50.870;4.702;2023-02-27T08:47:44;1.80;99.90
9564;DHT22;4820;50.870;4.702;2023-02-27T08:50:10;1.90;99.90
9564;DHT22;4820;50.870;4.702;2023-02-27T08:52:37;2.00;99.90
9564;DHT22;4820;50.870;4.702;2023-02-27T08:55:03;2.00;99.90
9564;DHT22;4820;50.870;4.702;2023-02-27T08:57:29;2.10;99.90
9564;DHT22;4820;50.870;4.702;2023-02-27T08:59:55;2.10;99.90
9564;DHT22;4820;50.870;4.702;2023-02-27T09:02:21;2.20;99.90
9564;DHT22;4820;50.870;4.702;2023-02-27T09:04:51;2.30;99.90
9564;DHT22;4820;50.870;4.702;2023-02-27T09:07:18;2.40;99.90
9564;DHT22;4820;50.870;4.702;2023-02-27T09:09:43;2.50;99.90
9564;DHT22;4820;50.870;4.702;2023-02-27T09:12:10;2.50;99.90
9564;DHT22;4820;50.870;4.702;2023-02-27T09:14:35;2.60;99.90
9564;DHT22;4820;50.870;4.702;2023-02-27T09:17:01;2.70;99.90
9564;DHT22;4820;50.870;4.702;2023-02-27T09:19:27;2.80;99.90
9564;DHT22;4820;50.870;4.702;2023-02-27T09:21:53;2.80;99.90
9564;DHT22;4820;50.870;4.702;2023-02-27T09:24:19;2.90;99.90
9564;DHT22;4820;50.870;4.702;2023-02-27T09:26:45;3.00;99.90
9564;DHT22;4820;50.870;4.702;2023-02-27T09:29:11;3.00;99.90
9564;DHT22;4820;50.870;4.702;2023-02-27T09:31:37;3.00;99.90
9564;DHT22;4820;50.870;4.702;2023-02-27T09:34:02;3.10;99.90
9564;DHT22;4820;50.870;4.702;2023-02-27T09:36:28;3.20;99.90
9564;DHT22;4820;50.870;4.702;2023-02-27T09:38:54;3.20;99.90
9564;DHT22;4820;50.870;4.702;2023-02-27T09:46:55;3.50;99.90
9564;DHT22;4820;50.870;4.702;2023-02-27T09:49:24;3.60;99.90
9564;DHT22;4820;50.870;4.702;2023-02-27T09:51:51;3.60;99.90
9564;DHT22;4820;50.870;4.702;2023-02-27T09:54:18;3.70;99.90
9564;DHT22;4820;50.870;4.702;2023-02-27T09:56:52;3.80;99.90
9564;DHT22;4820;50.870;4.702;2023-02-27T09:59:38;3.90;99.90
9564;DHT22;4820;50.870;4.702;2023-02-27T10:05:15;4.00;99.90
9564;DHT22;4820;50.870;4.702;2023-02-27T10:10:48;4.00;99.90
9564;DHT22;4820;50.870;4.702;2023-02-27T10:15:54;4.10;99.90
9564;DHT22;4820;50.870;4.702;2023-02-27T10:18:27;4.10;99.90
9564;DHT22;4820;50.870;4.702;2023-02-27T10:20:55;4.10;99.90
9564;DHT22;4820;50.870;4.702;2023-02-27T10:23:33;4.20;99.90
9564;DHT22;4820;50.870;4.702;2023-02-27T10:26:02;4.30;99.90
9564;DHT22;4820;50.870;4.702;2023-02-27T10:28:28;4.40;99.90
9564;DHT22;4820;50.870;4.702;2023-02-27T10:30:56;4.40;99.90
9564;DHT22;4820;50.870;4.702;2023-02-27T10:33:34;4.40;99.90
9564;DHT22;4820;50.870;4.702;2023-02-27T10:36:02;4.50;99.90
9564;DHT22;4820;50.870;4.702;2023-02-27T10:38:33;4.50;99.90
9564;DHT22;4820;50.870;4.702;2023-02-27T10:41:03;4.60;99.90
9564;DHT22;4820;50.870;4.702;2023-02-27T10:43:29;4.60;99.90
9564;DHT22;4820;50.870;4.702;2023-02-27T10:46:00;4.60;99.90
9564;DHT22;4820;50.870;4.702;2023-02-27T10:48:26;4.60;99.90
9564;DHT22;4820;50.870;4.702;2023-02-27T10:50:53;4.70;99.90
9564;DHT22;4820;50.870;4.702;2023-02-27T10:53:38;4.70;99.90
9564;DHT22;4820;50.870;4.702;2023-02-27T10:56:06;4.80;99.90
9564;DHT22;4820;50.870;4.702;2023-02-27T10:58:37;4.80;99.90
9564;DHT22;4820;50.870;4.702;2023-02-27T11:01:08;4.80;99.90
9564;DHT22;4820;50.870;4.702;2023-02-27T11:03:39;4.80;99.90
9564;DHT22;4820;50.870;4.702;2023-02-27T11:06:20;4.80;99.90
9564;DHT22;4820;50.870;4.702;2023-02-27T11:09:12;4.80;99.90
9564;DHT22;4820;50.870;4.702;2023-02-27T11:11:43;4.90;99.90
9564;DHT22;4820;50.870;4.702;2023-02-27T11:14:37;5.00;99.90
9564;DHT22;4820;50.870;4.702;2023-02-27T11:17:21;5.10;99.90
9564;DHT22;4820;50.870;4.702;2023-02-27T11:19:47;5.10;99.90
9564;DHT22;4820;50.870;4.702;2023-02-27T11:22:20;5.10;99.90
9564;DHT22;4820;50.870;4.702;2023-02-27T11:24:48;5.20;99.90
9564;DHT22;4820;50.870;4.702;2023-02-27T11:27:27;5.20;99.90
9564;DHT22;4820;50.870;4.702;2023-02-27T11:30:05;5.20;99.90
9564;DHT22;4820;50.870;4.702;2023-02-27T11:35:35;5.30;99.90
9564;DHT22;4820;50.870;4.702;2023-02-27T11:38:03;5.40;99.90
9564;DHT22;4820;50.870;4.702;2023-02-27T11:40:32;5.40;99.90
9564;DHT22;4820;50.870;4.702;2023-02-27T11:43:04;5.50;99.90
9564;DHT22;4820;50.870;4.702;2023-02-27T11:45:32;5.50;99.90
9564;DHT22;4820;50.870;4.702;2023-02-27T11:48:09;5.50;99.90
9564;DHT22;4820;50.870;4.702;2023-02-27T11:50:58;5.50;99.90
9564;DHT22;4820;50.870;4.702;2023-02-27T11:56:42;5.60;99.90
9564;DHT22;4820;50.870;4.702;2023-02-27T11:59:42;5.60;99.90
9564;DHT22;4820;50.870;4.702;2023-02-27T12:02:47;5.70;99.90
9564;DHT22;4820;50.870;4.702;2023-02-27T12:05:21;5.70;99.90
9564;DHT22;4820;50.870;4.702;2023-02-27T12:08:04;5.70;99.90
9564;DHT22;4820;50.870;4.702;2023-02-27T12:10:57;5.80;99.90
9564;DHT22;4820;50.870;4.702;2023-02-27T12:13:38;6.00;99.90
9564;DHT22;4820;50.870;4.702;2023-02-27T12:18:52;6.10;99.90
9564;DHT22;4820;50.870;4.702;2023-02-27T12:21:21;6.00;99.90
9564;DHT22;4820;50.870;4.702;2023-02-27T12:23:59;6.00;99.90
9564;DHT22;4820;50.870;4.702;2023-02-27T12:26:31;5.90;99.90
9564;DHT22;4820;50.870;4.702;2023-02-27T12:31:50;6.00;99.90
9564;DHT22;4820;50.870;4.702;2023-02-27T12:37:10;6.00;99.90
9564;DHT22;4820;50.870;4.702;2023-02-27T12:39:38;6.00;99.90
9564;DHT22;4820;50.870;4.702;2023-02-27T12:42:13;6.00;99.90
9564;DHT22;4820;50.870;4.702;2023-02-27T12:47:53;6.00;99.90
9564;DHT22;4820;50.870;4.702;2023-02-27T12:50:22;6.00;99.90
9564;DHT22;4820;50.870;4.702;2023-02-27T12:53:18;6.10;99.90
9564;DHT22;4820;50.870;4.702;2023-02-27T12:55:54;6.80;99.70
9564;DHT22;4820;50.870;4.702;2023-02-27T13:01:03;8.00;97.60
9564;DHT22;4820;50.870;4.702;2023-02-27T13:03:55;8.10;97.00
9564;DHT22;4820;50.870;4.702;2023-02-27T13:06:38;7.90;97.40
9564;DHT22;4820;50.870;4.702;2023-02-27T13:10:20;7.70;97.20
9564;DHT22;4820;50.870;4.702;2023-02-27T13:12:55;7.40;96.90
9564;DHT22;4820;50.870;4.702;2023-02-27T13:20:49;6.90;98.70
9564;DHT22;4820;50.870;4.702;2023-02-27T13:26:21;6.90;98.90
9564;DHT22;4820;50.870;4.702;2023-02-27T13:28:49;7.00;98.80
9564;DHT22;4820;50.870;4.702;2023-02-27T13:31:28;6.80;98.90
9564;DHT22;4820;50.870;4.702;2023-02-27T13:34:08;6.70;99.20
9564;DHT22;4820;50.870;4.702;2023-02-27T13:36:45;6.60;99.10
9564;DHT22;4820;50.870;4.702;2023-02-27T13:50:00;6.70;98.50
9564;DHT22;4820;50.870;4.702;2023-02-27T13:52:32;7.20;97.90
9564;DHT22;4820;50.870;4.702;2023-02-27T13:54:58;7.30;97.80
9564;DHT22;4820;50.870;4.702;2023-02-27T13:57:27;7.30;98.00
9564;DHT22;4820;50.870;4.702;2023-02-27T14:00:05;7.20;98.40
9564;DHT22;4820;50.870;4.702;2023-02-27T14:02:49;7.20;98.40
9564;DHT22;4820;50.870;4.702;2023-02-27T14:05:16;7.20;98.20
9564;DHT22;4820;50.870;4.702;2023-02-27T14:08:02;7.20;97.90
9564;DHT22;4820;50.870;4.702;2023-02-27T14:10:30;7.10;97.80
9564;DHT22;4820;50.870;4.702;2023-02-27T14:12:56;7.10;97.90
9564;DHT22;4820;50.870;4.702;2023-02-27T14:17:56;6.80;98.00
9564;DHT22;4820;50.870;4.702;2023-02-27T14:25:51;6.60;98.40
9564;DHT22;4820;50.870;4.702;2023-02-27T14:30:59;6.50;99.00
9564;DHT22;4820;50.870;4.702;2023-02-27T14:36:10;6.50;98.30
9564;DHT22;4820;50.870;4.702;2023-02-27T14:38:39;6.50;98.30
9564;DHT22;4820;50.870;4.702;2023-02-27T14:41:25;6.50;98.50
9564;DHT22;4820;50.870;4.702;2023-02-27T14:43:55;6.50;98.60
9564;DHT22;4820;50.870;4.702;2023-02-27T14:46:28;6.40;98.30
9564;DHT22;4820;50.870;4.702;2023-02-27T14:48:56;6.50;98.30
9564;DHT22;4820;50.870;4.702;2023-02-27T14:51:23;6.70;97.90
9564;DHT22;4820;50.870;4.702;2023-02-27T14:54:22;6.90;97.40
9564;DHT22;4820;50.870;4.702;2023-02-27T14:57:13;7.00;97.50
9564;DHT22;4820;50.870;4.702;2023-02-27T14:59:45;6.90;97.80
9564;DHT22;4820;50.870;4.702;2023-02-27T15:02:26;6.80;98.10
9564;DHT22;4820;50.870;4.702;2023-02-27T15:05:13;6.80;98.60
9564;DHT22;4820;50.870;4.702;2023-02-27T15:07:45;6.90;98.40
9564;DHT22;4820;50.870;4.702;2023-02-27T15:10:18;6.80;98.50
9564;DHT22;4820;50.870;4.702;2023-02-27T15:12:49;6.80;98.30
9564;DHT22;4820;50.870;4.702;2023-02-27T15:15:18;6.60;98.00
9564;DHT22;4820;50.870;4.702;2023-02-27T15:17:45;6.50;98.30
9564;DHT22;4820;50.870;4.702;2023-02-27T15:22:48;6.50;98.60
9564;DHT22;4820;50.870;4.702;2023-02-27T15:28:01;7.50;97.70
9564;DHT22;4820;50.870;4.702;2023-02-27T15:30:28;7.90;97.10
9564;DHT22;4820;50.870;4.702;2023-02-27T15:32:54;7.80;96.90
9564;DHT22;4820;50.870;4.702;2023-02-27T15:35:29;7.70;97.00
9564;DHT22;4820;50.870;4.702;2023-02-27T15:37:57;7.30;97.00
9564;DHT22;4820;50.870;4.702;2023-02-27T15:40:27;7.00;97.50
9564;DHT22;4820;50.870;4.702;2023-02-27T15:42:54;6.80;97.80
9564;DHT22;4820;50.870;4.702;2023-02-27T15:45:24;6.60;98.10
9564;DHT22;4820;50.870;4.702;2023-02-27T15:47:50;6.40;98.30
9564;DHT22;4820;50.870;4.702;2023-02-27T15:52:48;6.30;98.70
9564;DHT22;4820;50.870;4.702;2023-02-27T15:55:26;6.40;98.90
9564;DHT22;4820;50.870;4.702;2023-02-27T15:57:53;6.40;98.60
9564;DHT22;4820;50.870;4.702;2023-02-27T16:00:21;6.50;98.80
9564;DHT22;4820;50.870;4.702;2023-02-27T16:02:53;6.50;98.80
9564;DHT22;4820;50.870;4.702;2023-02-27T16:05:25;6.50;98.60
9564;DHT22;4820;50.870;4.702;2023-02-27T16:07:52;6.40;98.60
9564;DHT22;4820;50.870;4.702;2023-02-27T16:10:28;6.30;98.90
9564;DHT22;4820;50.870;4.702;2023-02-27T16:12:56;6.40;99.10
9564;DHT22;4820;50.870;4.702;2023-02-27T16:15:32;6.50;99.60
9564;DHT22;4820;50.870;4.702;2023-02-27T16:20:41;6.30;99.20
9564;DHT22;4820;50.870;4.702;2023-02-27T16:23:18;6.20;99.10
9564;DHT22;4820;50.870;4.702;2023-02-27T16:28:49;6.00;99.20
9564;DHT22;4820;50.870;4.702;2023-02-27T16:33:58;5.90;99.50
9564;DHT22;4820;50.870;4.702;2023-02-27T16:36:27;5.80;99.40
9564;DHT22;4820;50.870;4.702;2023-02-27T16:38:54;5.70;99.50
9564;DHT22;4820;50.870;4.702;2023-02-27T16:41:21;5.70;99.70
9564;DHT22;4820;50.870;4.702;2023-02-27T16:43:48;5.70;99.70
9564;DHT22;4820;50.870;4.702;2023-02-27T16:46:16;5.70;99.70
9564;DHT22;4820;50.870;4.702;2023-02-27T16:48:48;5.60;99.80
9564;DHT22;4820;50.870;4.702;2023-02-27T16:51:16;5.60;99.80
9564;DHT22;4820;50.870;4.702;2023-02-27T16:53:45;5.60;99.90
9564;DHT22;4820;50.870;4.702;2023-02-27T16:56:11;5.60;99.90
9564;DHT22;4820;50.870;4.702;2023-02-27T16:58:37;5.40;99.90
9564;DHT22;4820;50.870;4.702;2023-02-27T17:01:03;5.50;99.90
9564;DHT22;4820;50.870;4.702;2023-02-27T17:03:29;5.30;99.90
9564;DHT22;4820;50.870;4.702;2023-02-27T17:05:55;5.30;99.90
9564;DHT22;4820;50.870;4.702;2023-02-27T17:08:22;5.20;99.90
9564;DHT22;4820;50.870;4.702;2023-02-27T17:10:49;5.20;99.90
9564;DHT22;4820;50.870;4.702;2023-02-27T17:13:15;5.20;99.90
9564;DHT22;4820;50.870;4.702;2023-02-27T17:15:41;5.10;99.90
9564;DHT22;4820;50.870;4.702;2023-02-27T17:18:07;5.10;99.90
9564;DHT22;4820;50.870;4.702;2023-02-27T17:20:33;5.10;99.90
9564;DHT22;4820;50.870;4.702;2023-02-27T17:22:59;5.10;99.90
9564;DHT22;4820;50.870;4.702;2023-02-27T17:25:24;5.10;99.90
9564;DHT22;4820;50.870;4.702;2023-02-27T17:27:51;5.10;99.90
9564;DHT22;4820;50.870;4.702;2023-02-27T17:30:18;5.10;99.90
9564;DHT22;4820;50.870;4.702;2023-02-27T17:32:43;5.00;99.90
9564;DHT22;4820;50.870;4.702;2023-02-27T17:35:10;5.00;99.90
9564;DHT22;4820;50.870;4.702;2023-02-27T17:37:36;5.00;99.90
9564;DHT22;4820;50.870;4.702;2023-02-27T17:40:03;5.00;99.90
9564;DHT22;4820;50.870;4.702;2023-02-27T17:42:30;5.00;99.90
9564;DHT22;4820;50.870;4.702;2023-02-27T17:44:56;5.00;99.90
9564;DHT22;4820;50.870;4.702;2023-02-27T17:47:25;5.00;99.90
9564;DHT22;4820;50.870;4.702;2023-02-27T17:49:51;5.00;99.90
9564;DHT22;4820;50.870;4.702;2023-02-27T17:52:17;4.90;99.90
9564;DHT22;4820;50.870;4.702;2023-02-27T17:54:43;4.90;99.90
9564;DHT22;4820;50.870;4.702;2023-02-27T17:57:08;5.00;99.90
9564;DHT22;4820;50.870;4.702;2023-02-27T17:59:36;5.00;99.90
9564;DHT22;4820;50.870;4.702;2023-02-27T18:02:02;5.10;99.90
9564;DHT22;4820;50.870;4.702;2023-02-27T18:04:27;5.00;99.90
9564;DHT22;4820;50.870;4.702;2023-02-27T18:06:53;5.10;99.90
9564;DHT22;4820;50.870;4.702;2023-02-27T18:09:19;5.00;99.90
9564;DHT22;4820;50.870;4.702;2023-02-27T18:11:44;4.90;99.90
9564;DHT22;4820;50.870;4.702;2023-02-27T18:14:11;5.00;99.90
9564;DHT22;4820;50.870;4.702;2023-02-27T18:16:38;5.00;99.90
9564;DHT22;4820;50.870;4.702;2023-02-27T18:19:05;5.10;99.90
9564;DHT22;4820;50.870;4.702;2023-02-27T18:21:31;5.00;99.90
9564;DHT22;4820;50.870;4.702;2023-02-27T18:23:57;5.00;99.90
9564;DHT22;4820;50.870;4.702;2023-02-27T18:26:28;5.00;99.90
9564;DHT22;4820;50.870;4.702;2023-02-27T18:28:56;4.90;99.90
9564;DHT22;4820;50.870;4.702;2023-02-27T18:31:27;5.00;99.90
9564;DHT22;4820;50.870;4.702;2023-02-27T18:33:53;5.00;99.90
9564;DHT22;4820;50.870;4.702;2023-02-27T18:36:19;4.90;99.90
9564;DHT22;4820;50.870;4.702;2023-02-27T18:38:45;5.00;99.90
9564;DHT22;4820;50.870;4.702;2023-02-27T18:41:11;4.90;99.90
9564;DHT22;4820;50.870;4.702;2023-02-27T18:43:39;4.80;99.90
9564;DHT22;4820;50.870;4.702;2023-02-27T18:46:05;4.80;99.90
9564;DHT22;4820;50.870;4.702;2023-02-27T18:48:31;4.70;99.90
9564;DHT22;4820;50.870;4.702;2023-02-27T18:50:59;4.70;99.90
9564;DHT22;4820;50.870;4.702;2023-02-27T18:53:25;4.60;99.90
9564;DHT22;4820;50.870;4.702;2023-02-27T18:55:51;4.60;99.90
9564;DHT22;4820;50.870;4.702;2023-02-27T18:58:17;4.60;99.90
9564;DHT22;4820;50.870;4.702;2023-02-27T19:00:42;4.60;99.90
9564;DHT22;4820;50.870;4.702;2023-02-27T19:03:08;4.60;99.90
9564;DHT22;4820;50.870;4.702;2023-02-27T19:05:39;4.50;99.90
9564;DHT22;4820;50.870;4.702;2023-02-27T19:08:05;4.50;99.90
9564;DHT22;4820;50.870;4.702;2023-02-27T19:10:31;4.50;99.90
9564;DHT22;4820;50.870;4.702;2023-02-27T19:12:59;4.50;99.90
9564;DHT22;4820;50.870;4.702;2023-02-27T19:15:25;4.40;99.90
9564;DHT22;4820;50.870;4.702;2023-02-27T19:17:50;4.40;99.90
9564;DHT22;4820;50.870;4.702;2023-02-27T19:20:16;4.50;99.90
9564;DHT22;4820;50.870;4.702;2023-02-27T19:22:43;4.30;99.90